Time;durP1;ratioP1;P1;durP2;ratioP2;P2;SDS_P1;SDS_P2;PMS_P1;PMS_P2;Temp;Humidity;BMP_temperature;BMP_pressure;BME280_temperature;BME280_humidity;BME280_pressure;Samples;Min_cycle;Max_cycle;Signal;HPM_P1;HPM_P2
2022/08/30 00:01:26;;;;;;;6.67;5.00;;;;;;;17.59;97.24;98377.59;5100863;28;20231;-67
2022/08/30 00:03:57;;;;;;;5.50;5.00;;;;;;;17.57;96.76;98369.75;5101704;28;20247;-67
2022/08/30 00:06:25;;;;;;;6.03;4.60;;;;;;;17.65;91.31;98364.53;5100428;28;20242;-67
2022/08/30 00:08:53;;;;;;;6.50;4.97;;;;;;;17.64;93.32;98365.53;5100455;28;20573;-67
2022/08/30 00:11:22;;;;;;;6.97;5.27;;;;;;;17.59;94.16;98370.44;5101650;28;20579;-67
2022/08/30 00:13:51;;;;;;;5.50;5.00;;;;;;;17.51;94.81;98364.97;5099476;28;20272;-67
2022/08/30 00:16:19;;;;;;;7.20;4.93;;;;;;;17.43;96.22;98366.69;5099938;28;20227;-67
2022/08/30 00:18:48;;;;;;;5.40;4.90;;;;;;;17.38;97.24;98374.28;5100252;28;20227;-67
2022/08/30 00:21:15;;;;;;;5.00;4.50;;;;;;;17.34;97.69;98371.00;5102103;28;20296;-67
2022/08/30 00:23:42;;;;;;;5.53;4.70;;;;;;;17.33;97.57;98374.69;5086017;28;20230;-68
2022/08/30 00:26:09;;;;;;;4.70;4.10;;;;;;;17.33;97.30;98377.34;5100062;28;20242;-68
2022/08/30 00:28:36;;;;;;;5.50;4.70;;;;;;;17.30;97.45;98372.28;5097919;28;20268;-68
2022/08/30 00:31:04;;;;;;;6.10;4.60;;;;;;;17.28;97.98;98376.94;5099762;28;20272;-68
2022/08/30 00:33:30;;;;;;;5.70;4.80;;;;;;;17.24;99.16;98372.84;5100196;28;20284;-67
2022/08/30 00:35:58;;;;;;;5.47;4.97;;;;;;;17.24;99.83;98375.50;5099956;28;20256;-68
2022/08/30 00:38:25;;;;;;;5.30;4.80;;;;;;;17.23;100.00;98379.16;5099942;28;20227;-68
2022/08/30 00:40:53;;;;;;;5.47;4.97;;;;;;;17.24;100.00;98377.34;5099924;28;20608;-67
2022/08/30 00:43:23;;;;;;;5.90;5.10;;;;;;;17.21;100.00;98378.47;5099963;28;20226;-67
2022/08/30 00:45:50;;;;;;;5.40;4.90;;;;;;;17.18;100.00;98373.41;5099770;28;20329;-67
2022/08/30 00:48:17;;;;;;;6.10;4.97;;;;;;;17.16;100.00;98375.38;5099880;28;20277;-67
2022/08/30 00:50:47;;;;;;;5.60;5.10;;;;;;;17.11;100.00;98372.28;5115642;28;20229;-67
2022/08/30 00:53:19;;;;;;;5.90;5.30;;;;;;;17.06;100.00;98371.84;5091834;28;20242;-67
2022/08/30 00:55:47;;;;;;;10.43;5.07;;;;;;;17.03;100.00;98369.47;5099855;28;20254;-67
2022/08/30 00:58:20;;;;;;;6.23;5.57;;;;;;;16.96;100.00;98378.19;5099710;28;20598;-67
2022/08/30 01:00:47;;;;;;;5.93;5.33;;;;;;;16.92;100.00;98374.09;5101844;28;20225;-67
2022/08/30 01:03:14;;;;;;;5.53;5.00;;;;;;;16.88;100.00;98381.53;5099484;28;20222;-68
2022/08/30 01:05:41;;;;;;;6.03;5.43;;;;;;;16.87;100.00;98377.19;5098980;28;20246;-66
2022/08/30 01:08:08;;;;;;;6.20;5.63;;;;;;;16.84;100.00;98373.97;5098568;28;20311;-67
2022/08/30 01:10:37;;;;;;;5.70;5.20;;;;;;;16.80;100.00;98389.41;5101663;28;20222;-67
2022/08/30 01:13:05;;;;;;;7.83;5.50;;;;;;;16.76;100.00;98381.81;5099335;28;20226;-67
2022/08/30 01:15:34;;;;;;;6.83;5.40;;;;;;;16.72;100.00;98381.25;5097206;28;20276;-67
2022/08/30 01:18:02;;;;;;;5.80;5.23;;;;;;;16.72;100.00;98380.41;5097195;28;20219;-66
2022/08/30 01:20:36;;;;;;;5.93;5.30;;;;;;;16.68;100.00;98374.50;5097145;28;20302;-67
2022/08/30 01:23:11;;;;;;;5.17;4.70;;;;;;;16.62;100.00;98372.38;5099444;28;20230;-68
2022/08/30 01:25:41;;;;;;;5.97;5.37;;;;;;;16.52;100.00;98374.16;5099347;28;20242;-67
2022/08/30 01:28:11;;;;;;;6.33;5.73;;;;;;;16.46;100.00;98377.38;5101395;28;20609;-66
2022/08/30 01:30:39;;;;;;;6.10;5.23;;;;;;;16.44;100.00;98376.69;5085680;28;20222;-68
2022/08/30 01:33:07;;;;;;;5.97;5.33;;;;;;;16.46;100.00;98374.72;5097500;28;20226;-69
2022/08/30 01:35:46;;;;;;;5.57;5.07;;;;;;;16.39;100.00;98376.25;5099165;28;20306;-69
2022/08/30 01:38:15;;;;;;;6.13;5.40;;;;;;;16.35;100.00;98372.13;5095037;28;20226;-68
2022/08/30 01:40:45;;;;;;;5.90;5.07;;;;;;;16.32;100.00;98382.22;5096943;28;20287;-69
2022/08/30 01:43:14;;;;;;;5.60;5.10;;;;;;;16.29;100.00;98374.50;5099172;28;20299;-68
2022/08/30 01:45:41;;;;;;;6.03;5.43;;;;;;;16.28;100.00;98370.97;5099851;28;20651;-68
2022/08/30 01:48:11;;;;;;;8.40;5.47;;;;;;;16.33;100.00;98374.09;5100208;28;20226;-67
2022/08/30 01:50:38;;;;;;;6.40;5.80;;;;;;;16.35;100.00;98374.78;5099131;28;20249;-68
2022/08/30 01:53:05;;;;;;;5.97;5.20;;;;;;;16.35;100.00;98388.13;5096854;28;20284;-67
2022/08/30 01:55:33;;;;;;;6.10;5.47;;;;;;;16.23;100.00;98388.38;5097772;28;20305;-67
2022/08/30 01:58:01;;;;;;;7.03;5.87;;;;;;;16.14;100.00;98392.69;5097971;28;20659;-67
2022/08/30 02:00:27;;;;;;;6.13;5.30;;;;;;;16.13;100.00;98399.00;5098881;28;20226;-68
2022/08/30 02:02:56;;;;;;;6.37;5.77;;;;;;;16.10;100.00;98393.09;5099005;28;20261;-68
2022/08/30 02:05:23;;;;;;;6.33;5.73;;;;;;;16.10;100.00;98387.78;5103865;28;20227;-68
2022/08/30 02:07:50;;;;;;;6.57;5.80;;;;;;;16.11;100.00;98384.13;5103176;28;20235;-68
2022/08/30 02:10:17;;;;;;;6.20;5.60;;;;;;;16.07;100.00;98387.19;5102596;28;20278;-68
2022/08/30 02:12:46;;;;;;;6.10;5.43;;;;;;;15.97;100.00;98386.28;5102495;28;20272;-68
2022/08/30 02:15:13;;;;;;;6.23;5.63;;;;;;;15.94;100.00;98386.56;5102452;28;20226;-68
2022/08/30 02:17:41;;;;;;;6.50;5.90;;;;;;;15.85;100.00;98382.03;5100165;28;20267;-68
2022/08/30 02:20:08;;;;;;;6.43;5.73;;;;;;;15.81;100.00;98378.78;5102428;28;20250;-67
2022/08/30 02:22:36;;;;;;;6.03;5.47;;;;;;;15.76;100.00;98377.50;5102339;28;20230;-68
2022/08/30 02:25:04;;;;;;;6.80;5.80;;;;;;;15.75;100.00;98376.66;5101867;28;20674;-68
2022/08/30 02:27:31;;;;;;;7.13;6.30;;;;;;;15.80;100.00;98370.91;5102690;28;20337;-67
2022/08/30 02:29:59;;;;;;;6.67;5.97;;;;;;;15.79;100.00;98367.41;5102264;28;20280;-68
2022/08/30 02:32:26;;;;;;;7.27;5.97;;;;;;;15.81;100.00;98364.59;5102230;28;20227;-67
2022/08/30 02:34:53;;;;;;;7.70;6.80;;;;;;;15.83;100.00;98368.00;5103227;28;20279;-67
2022/08/30 02:37:20;;;;;;;6.63;5.90;;;;;;;15.85;100.00;98371.38;5102878;28;20586;-68
2022/08/30 02:39:47;;;;;;;6.93;6.23;;;;;;;15.86;100.00;98362.38;5099879;28;20230;-67
2022/08/30 02:42:14;;;;;;;6.57;5.60;;;;;;;15.81;100.00;98364.59;5099778;28;20283;-67
2022/08/30 02:44:40;;;;;;;7.27;6.00;;;;;;;15.80;100.00;98358.44;5102795;28;20284;-67
2022/08/30 02:47:09;;;;;;;6.40;5.70;;;;;;;15.75;100.00;98368.66;5102954;28;20584;-67
2022/08/30 02:49:36;;;;;;;9.00;6.60;;;;;;;15.74;100.00;98364.31;5108943;28;20484;-67
2022/08/30 02:52:04;;;;;;;6.10;5.50;;;;;;;15.79;100.00;98355.91;5105111;28;20247;-67
2022/08/30 02:54:32;;;;;;;6.70;6.00;;;;;;;15.79;100.00;98362.09;5102658;28;20230;-66
2022/08/30 02:56:59;;;;;;;8.13;6.30;;;;;;;15.80;100.00;98362.91;5102705;28;20222;-68
2022/08/30 02:59:25;;;;;;;8.50;6.90;;;;;;;15.90;100.00;98364.69;5101608;28;20601;-67
2022/08/30 03:01:52;;;;;;;8.10;6.97;;;;;;;15.95;100.00;98362.44;5101492;28;20246;-67
2022/08/30 03:04:20;;;;;;;8.10;6.70;;;;;;;15.98;100.00;98366.66;5102216;28;20233;-67
2022/08/30 03:06:47;;;;;;;7.70;6.50;;;;;;;15.95;100.00;98353.59;5102658;28;20245;-67
2022/08/30 03:09:14;;;;;;;7.30;6.40;;;;;;;15.98;100.00;98352.34;5101450;28;20666;-67
2022/08/30 03:11:41;;;;;;;7.40;6.33;;;;;;;15.96;100.00;98347.28;5101566;28;20230;-67
2022/08/30 03:14:08;;;;;;;6.53;5.93;;;;;;;15.91;100.00;98354.84;5101514;28;20248;-67
2022/08/30 03:16:34;;;;;;;7.63;6.83;;;;;;;15.89;100.00;98349.63;5101103;28;20217;-66
2022/08/30 03:19:01;;;;;;;7.30;6.60;;;;;;;15.86;100.00;98349.06;5101134;28;20237;-67
2022/08/30 03:21:29;;;;;;;7.70;6.90;;;;;;;15.77;100.00;98352.53;5101129;28;20254;-68
2022/08/30 03:23:56;;;;;;;8.03;7.13;;;;;;;15.58;100.00;98341.78;5101338;28;20223;-67
2022/08/30 03:26:23;;;;;;;8.03;7.00;;;;;;;15.43;100.00;98343.06;5102793;28;20318;-68
2022/08/30 03:28:49;;;;;;;7.60;6.67;;;;;;;15.28;100.00;98342.53;5101171;28;20261;-67
2022/08/30 03:31:16;;;;;;;7.03;6.40;;;;;;;15.25;100.00;98350.78;5101012;28;20272;-67
2022/08/30 03:33:43;;;;;;;7.70;6.90;;;;;;;15.15;100.00;98341.03;5101108;28;20294;-68
2022/08/30 03:36:11;;;;;;;6.93;6.23;;;;;;;15.11;100.00;98347.59;5098579;28;20677;-67
2022/08/30 03:38:42;;;;;;;8.53;7.13;;;;;;;15.08;100.00;98350.50;5100842;28;20286;-67
2022/08/30 03:41:09;;;;;;;7.83;7.00;;;;;;;15.05;100.00;98351.63;5100761;28;20227;-67
2022/08/30 03:43:35;;;;;;;7.53;6.43;;;;;;;14.99;100.00;98345.94;5099111;28;20258;-67
2022/08/30 03:46:03;;;;;;;7.13;6.03;;;;;;;15.08;100.00;98347.84;5102212;28;20270;-67
2022/08/30 03:48:30;;;;;;;7.90;7.07;;;;;;;15.10;100.00;98340.59;5100648;28;20253;-67
2022/08/30 03:50:57;;;;;;;8.30;6.53;;;;;;;15.09;100.00;98346.88;5100619;28;20307;-67
2022/08/30 03:53:24;;;;;;;7.63;6.90;;;;;;;15.10;100.00;98341.41;5100746;28;20307;-67
2022/08/30 03:55:52;;;;;;;8.70;6.93;;;;;;;15.07;100.00;98346.16;5098463;28;20665;-67
2022/08/30 03:58:19;;;;;;;7.80;6.73;;;;;;;15.01;100.00;98346.66;5100502;28;20298;-67
2022/08/30 04:00:46;;;;;;;9.30;7.30;;;;;;;14.97;100.00;98340.75;5100533;28;20517;-67
2022/08/30 04:03:12;;;;;;;7.50;6.80;;;;;;;14.92;100.00;98347.44;5100318;28;20234;-67
2022/08/30 04:05:39;;;;;;;9.80;7.70;;;;;;;14.84;100.00;98349.91;5104078;28;20222;-67
2022/08/30 04:08:06;;;;;;;9.43;7.27;;;;;;;14.84;100.00;98352.56;5108580;28;20242;-68
2022/08/30 04:10:34;;;;;;;9.10;7.43;;;;;;;14.89;100.00;98350.34;5100211;28;20225;-67
2022/08/30 04:13:02;;;;;;;8.40;7.30;;;;;;;14.92;100.00;98352.75;5100013;28;20226;-67
2022/08/30 04:15:29;;;;;;;8.60;7.33;;;;;;;14.93;100.00;98349.13;5102209;28;20229;-67
2022/08/30 04:17:55;;;;;;;9.17;8.03;;;;;;;14.86;100.00;98347.94;5100058;28;20249;-67
2022/08/30 04:20:22;;;;;;;8.97;8.07;;;;;;;14.87;100.00;98349.63;5099862;28;20582;-67
2022/08/30 04:22:49;;;;;;;9.67;8.27;;;;;;;14.77;100.00;98349.56;5099962;28;20229;-67
2022/08/30 04:25:16;;;;;;;10.90;8.70;;;;;;;14.79;100.00;98344.13;5101802;28;20252;-67
2022/08/30 04:27:44;;;;;;;11.10;8.70;;;;;;;14.81;100.00;98344.81;5099108;28;20248;-67
2022/08/30 04:30:14;;;;;;;9.00;7.90;;;;;;;14.81;100.00;98345.69;5099837;28;20575;-67
2022/08/30 04:32:41;;;;;;;9.57;8.53;;;;;;;14.76;100.00;98342.53;5099720;28;20639;-67
2022/08/30 04:35:09;;;;;;;10.73;8.20;;;;;;;14.71;100.00;98354.53;5100402;28;20264;-67
2022/08/30 04:37:37;;;;;;;10.17;8.40;;;;;;;14.70;100.00;98353.69;5099731;28;20283;-68
2022/08/30 04:40:05;;;;;;;11.53;8.63;;;;;;;14.77;100.00;98354.00;5099655;28;20535;-68
2022/08/30 04:42:33;;;;;;;10.03;8.33;;;;;;;14.84;100.00;98349.91;5099712;28;20243;-68
2022/08/30 04:45:03;;;;;;;10.80;8.40;;;;;;;14.87;100.00;98349.63;5097468;28;20300;-67
2022/08/30 04:47:33;;;;;;;10.27;8.40;;;;;;;14.95;100.00;98352.50;5099662;28;20245;-67
2022/08/30 04:49:59;;;;;;;9.30;8.30;;;;;;;15.04;100.00;98357.91;5099686;28;20233;-67
2022/08/30 04:52:26;;;;;;;9.27;8.37;;;;;;;15.11;100.00;98364.41;5099650;28;20257;-67
2022/08/30 04:54:54;;;;;;;10.87;8.80;;;;;;;15.16;100.00;98362.19;5101028;28;20233;-67
2022/08/30 04:57:21;;;;;;;8.93;8.03;;;;;;;15.23;100.00;98367.84;5099503;28;20228;-67
2022/08/30 04:59:48;;;;;;;8.90;8.00;;;;;;;15.29;100.00;98359.34;5098827;28;20256;-66
2022/08/30 05:02:14;;;;;;;9.70;7.90;;;;;;;15.36;100.00;98371.22;5098504;28;20295;-67
2022/08/30 05:05:38;;;;;;;9.37;7.93;;;;;;;15.52;100.00;98368.94;5101293;28;20278;-67
2022/08/30 05:07:30;;;;;;;10.07;8.53;;;;;;;15.69;100.00;98381.66;5099118;28;20253;-67
2022/08/30 05:09:57;;;;;;;10.37;7.43;;;;;;;15.84;100.00;98388.34;5099316;28;20574;-67
2022/08/30 05:12:24;;;;;;;10.63;8.37;;;;;;;15.96;100.00;98389.94;5101451;28;20241;-67
2022/08/30 05:14:51;;;;;;;8.20;7.40;;;;;;;16.13;100.00;98397.31;5099471;28;20222;-67
2022/08/30 05:17:18;;;;;;;9.83;8.77;;;;;;;16.23;100.00;98409.72;5099215;28;20672;-67
2022/08/30 05:19:46;;;;;;;8.73;7.70;;;;;;;16.39;100.00;98400.25;5099280;28;20230;-66
2022/08/30 05:22:13;;;;;;;8.10;7.30;;;;;;;16.60;100.00;98398.38;5101400;28;20231;-67
2022/08/30 05:24:40;;;;;;;7.93;7.13;;;;;;;16.75;100.00;98409.47;5099245;28;20226;-67
2022/08/30 05:27:06;;;;;;;7.90;7.10;;;;;;;16.90;100.00;98411.63;5097446;28;20277;-67
2022/08/30 05:29:33;;;;;;;7.97;7.13;;;;;;;17.05;100.00;98404.91;5099168;28;20323;-67
2022/08/30 05:32:00;;;;;;;9.07;7.73;;;;;;;17.18;100.00;98394.78;5101321;28;20230;-67
2022/08/30 05:34:29;;;;;;;8.80;7.57;;;;;;;17.26;100.00;98402.91;5085066;28;20694;-67
2022/08/30 05:36:58;;;;;;;8.53;7.57;;;;;;;17.39;100.00;98414.22;5099113;28;20226;-67
2022/08/30 05:39:25;;;;;;;9.17;6.93;;;;;;;17.47;100.00;98405.47;5103127;28;20241;-67
2022/08/30 05:41:56;;;;;;;8.67;7.73;;;;;;;17.52;100.00;98404.09;5105384;28;20223;-67
2022/08/30 05:44:22;;;;;;;8.20;7.30;;;;;;;17.57;100.00;98401.84;5102896;28;20313;-67
2022/08/30 05:46:49;;;;;;;8.73;7.53;;;;;;;17.66;100.00;98395.63;5102718;28;20238;-67
2022/08/30 05:49:16;;;;;;;8.60;7.70;;;;;;;17.69;100.00;98384.63;5102932;28;20234;-68
2022/08/30 05:51:44;;;;;;;8.93;7.50;;;;;;;17.75;100.00;98388.56;5104154;28;20243;-67
2022/08/30 05:54:12;;;;;;;12.63;8.47;;;;;;;17.81;100.00;98396.00;5101415;28;20227;-67
2022/08/30 05:56:41;;;;;;;8.90;8.10;;;;;;;17.87;100.00;98385.56;5102749;28;20252;-66
2022/08/30 05:59:08;;;;;;;10.13;7.80;;;;;;;17.92;100.00;98379.78;5102693;28;20288;-67
2022/08/30 06:01:37;;;;;;;8.00;7.20;;;;;;;17.96;100.00;98387.38;5104840;28;20234;-67
2022/08/30 06:04:06;;;;;;;9.20;7.57;;;;;;;18.02;100.00;98386.78;5102549;28;20229;-67
2022/08/30 06:06:35;;;;;;;9.90;7.97;;;;;;;18.09;100.00;98387.88;5102432;28;20262;-67
2022/08/30 06:09:02;;;;;;;9.10;8.10;;;;;;;18.19;100.00;98398.56;5102548;28;20223;-67
2022/08/30 06:11:30;;;;;;;10.27;8.30;;;;;;;18.32;100.00;98404.44;5104623;28;20256;-67
2022/08/30 06:13:57;;;;;;;9.97;8.63;;;;;;;18.42;100.00;98411.44;5102464;28;20222;-67
2022/08/30 06:16:26;;;;;;;12.17;9.27;;;;;;;18.54;100.00;98404.91;5102295;28;20234;-66
2022/08/30 06:18:55;;;;;;;10.27;8.73;;;;;;;18.73;100.00;98410.16;5100414;28;20644;-67
2022/08/30 06:21:24;;;;;;;10.70;8.87;;;;;;;18.90;100.00;98416.53;5099880;28;20226;-67
2022/08/30 06:23:52;;;;;;;10.87;9.70;;;;;;;19.06;99.94;98412.19;5102278;28;20299;-66
2022/08/30 06:26:19;;;;;;;10.43;9.07;;;;;;;19.26;99.29;98411.06;5102157;28;20257;-67
2022/08/30 06:28:48;;;;;;;10.40;9.10;;;;;;;19.52;97.26;98411.97;5101906;28;20247;-67
2022/08/30 06:31:17;;;;;;;10.70;9.57;;;;;;;19.71;95.50;98403.78;5103658;28;20224;-67
2022/08/30 06:33:47;;;;;;;11.33;8.67;;;;;;;19.80;94.51;98407.38;5101984;28;20223;-67
2022/08/30 06:36:18;;;;;;;9.57;8.33;;;;;;;19.80;94.48;98408.19;5101922;28;20226;-67
2022/08/30 06:38:45;;;;;;;8.97;8.03;;;;;;;19.80;94.49;98402.81;5103081;28;20225;-66
2022/08/30 06:41:18;;;;;;;8.57;7.67;;;;;;;19.83;94.17;98399.84;5100119;28;20230;-67
2022/08/30 06:43:45;;;;;;;9.60;8.60;;;;;;;19.87;93.69;98401.19;5099235;28;20283;-66
2022/08/30 06:46:15;;;;;;;10.50;8.23;;;;;;;19.85;93.00;98392.47;5100456;28;20230;-67
2022/08/30 06:48:42;;;;;;;10.93;8.60;;;;;;;19.91;93.06;98399.88;5103296;28;20242;-66
2022/08/30 06:51:09;;;;;;;10.77;8.20;;;;;;;19.95;92.71;98401.28;5087320;28;20532;-67
2022/08/30 06:53:35;;;;;;;8.80;7.97;;;;;;;20.01;91.22;98399.78;5101487;28;20640;-66
2022/08/30 06:56:06;;;;;;;9.37;8.07;;;;;;;20.03;90.97;98404.00;5101563;28;20311;-66
2022/08/30 06:58:34;;;;;;;8.53;7.50;;;;;;;20.06;90.14;98398.34;5103765;28;20226;-67
2022/08/30 07:01:01;;;;;;;8.60;7.70;;;;;;;20.11;89.91;98398.69;5101531;28;20222;-67
2022/08/30 07:03:29;;;;;;;11.33;7.50;;;;;;;20.11;89.38;98398.69;5101473;28;20291;-67
2022/08/30 07:05:57;;;;;;;8.87;7.90;;;;;;;20.13;89.21;98395.88;5101370;28;20222;-67
2022/08/30 07:08:24;;;;;;;10.87;7.77;;;;;;;20.16;88.70;98393.72;5103454;28;20326;-67
2022/08/30 07:10:53;;;;;;;9.60;7.53;;;;;;;20.18;88.05;98394.38;5099515;28;20260;-67
2022/08/30 07:13:20;;;;;;;8.20;7.27;;;;;;;20.17;87.82;98387.34;5101030;28;20325;-66
2022/08/30 07:15:47;;;;;;;9.07;7.83;;;;;;;20.18;88.62;98402.44;5101419;28;20235;-67
2022/08/30 07:21:07;;;;;;;10.50;8.80;;;;;;;20.20;90.02;98395.09;5101033;28;20214;-66
2022/08/30 07:23:34;;;;;;;11.60;9.33;;;;;;;20.16;90.39;98404.44;5101203;28;20222;-65
2022/08/30 07:26:04;;;;;;;9.07;8.17;;;;;;;20.10;90.11;98401.53;5101629;28;20268;-66
2022/08/30 07:28:31;;;;;;;8.90;8.00;;;;;;;20.11;89.31;98412.13;5085561;28;20246;-67
2022/08/30 07:30:58;;;;;;;9.03;7.93;;;;;;;20.27;87.81;98412.22;5099142;28;20222;-67
2022/08/30 07:33:25;;;;;;;9.73;7.60;;;;;;;20.48;86.61;98414.50;5099783;28;20230;-66
2022/08/30 07:35:52;;;;;;;8.90;7.60;;;;;;;20.69;85.12;98413.09;5101824;28;20252;-66
2022/08/30 07:38:20;;;;;;;9.07;7.10;;;;;;;20.84;83.55;98408.78;5099850;28;20264;-66
2022/08/30 07:40:46;;;;;;;8.43;6.83;;;;;;;21.01;83.57;98407.00;5101422;28;20287;-66
2022/08/30 07:43:13;;;;;;;8.10;7.07;;;;;;;21.17;82.73;98402.53;5101391;28;20593;-66
2022/08/30 07:45:40;;;;;;;8.53;7.03;;;;;;;21.37;81.26;98409.25;5104027;28;20590;-67
2022/08/30 07:48:07;;;;;;;6.93;5.97;;;;;;;21.56;78.92;98413.47;5101360;28;20292;-66
2022/08/30 07:50:34;;;;;;;8.93;7.17;;;;;;;21.83;77.43;98411.31;5101167;28;20265;-65
2022/08/30 07:53:00;;;;;;;7.53;6.23;;;;;;;21.94;77.11;98412.84;5100630;28;20286;-66
2022/08/30 07:55:29;;;;;;;7.33;6.17;;;;;;;22.11;76.23;98415.31;5103978;28;20263;-67
2022/08/30 07:57:55;;;;;;;6.80;6.20;;;;;;;22.33;74.74;98408.38;5101472;28;20226;-67
2022/08/30 08:00:22;;;;;;;7.30;5.60;;;;;;;22.41;73.40;98413.72;5099659;28;20351;-65
2022/08/30 08:02:49;;;;;;;6.17;5.57;;;;;;;22.39;73.31;98408.53;5099029;28;20238;-66
2022/08/30 08:05:16;;;;;;;6.80;5.63;;;;;;;22.39;72.69;98413.91;5103398;28;20222;-66
2022/08/30 08:07:42;;;;;;;6.30;5.67;;;;;;;22.36;71.76;98406.16;5100751;28;20423;-67
2022/08/30 08:10:10;;;;;;;6.13;5.40;;;;;;;22.28;71.65;98406.19;5100766;28;20276;-67
2022/08/30 08:12:38;;;;;;;5.40;4.90;;;;;;;22.30;73.91;98406.03;5100763;28;20565;-68
2022/08/30 08:15:06;;;;;;;7.43;5.47;;;;;;;22.36;71.12;98408.03;5102513;28;20226;-67
2022/08/30 08:17:33;;;;;;;6.67;5.10;;;;;;;22.51;71.06;98417.94;5101326;28;20628;-67
2022/08/30 08:20:00;;;;;;;8.10;5.60;;;;;;;22.73;70.41;98411.78;5100699;28;20223;-66
2022/08/30 08:22:26;;;;;;;6.20;5.60;;;;;;;22.90;67.60;98410.69;5099880;28;20560;-66
2022/08/30 08:24:53;;;;;;;7.13;5.47;;;;;;;23.19;66.69;98416.31;5103063;28;20234;-67
2022/08/30 08:27:20;;;;;;;5.30;4.80;;;;;;;23.50;67.19;98411.72;5101539;28;20226;-67
2022/08/30 08:29:48;;;;;;;5.43;4.93;;;;;;;23.67;65.43;98415.97;5097937;28;20230;-68
2022/08/30 08:32:14;;;;;;;6.93;4.87;;;;;;;23.75;65.75;98407.78;5100384;28;20283;-67
2022/08/30 08:34:41;;;;;;;5.27;4.77;;;;;;;23.95;65.04;98400.06;5102600;28;20601;-68
2022/08/30 08:37:08;;;;;;;5.70;5.13;;;;;;;24.22;64.77;98408.41;5102767;28;20275;-68
2022/08/30 08:39:34;;;;;;;6.53;5.30;;;;;;;24.28;65.05;98409.50;5101168;28;20258;-68
2022/08/30 08:42:09;;;;;;;7.13;5.57;;;;;;;24.37;64.23;98406.53;5101139;28;20257;-69
2022/08/30 08:44:51;;;;;;;6.30;5.63;;;;;;;24.54;63.41;98413.44;5103987;28;20515;-67
2022/08/30 08:47:25;;;;;;;5.80;5.20;;;;;;;24.72;62.71;98403.13;5089781;28;20279;-68
2022/08/30 08:49:55;;;;;;;5.80;5.07;;;;;;;25.08;62.09;98401.28;5101210;28;20272;-67
2022/08/30 08:55:16;;;;;;;7.10;5.23;;;;;;;25.41;62.07;98399.81;5090119;28;20210;-68
2022/08/30 08:57:43;;;;;;;5.90;5.30;;;;;;;25.56;60.50;98395.19;5099369;28;20230;-68
2022/08/30 09:00:14;;;;;;;7.50;5.33;;;;;;;25.76;59.31;98395.34;5102222;28;20223;-67
2022/08/30 09:02:44;;;;;;;6.60;5.53;;;;;;;25.88;59.27;98397.34;5102601;28;20234;-68
2022/08/30 09:05:14;;;;;;;6.20;5.20;;;;;;;26.05;59.11;98398.78;5100883;28;20280;-66
2022/08/30 09:07:45;;;;;;;6.13;5.23;;;;;;;26.25;58.77;98397.03;5100797;28;20265;-67
2022/08/30 09:10:11;;;;;;;5.67;5.07;;;;;;;26.29;57.76;98392.91;5103808;28;20279;-68
2022/08/30 09:12:38;;;;;;;7.17;5.03;;;;;;;26.32;57.03;98381.66;5101019;28;20230;-67
2022/08/30 09:15:14;;;;;;;7.33;5.33;;;;;;;26.12;56.11;98386.09;5100707;28;20287;-67
2022/08/30 09:17:54;;;;;;;5.50;5.00;;;;;;;26.06;57.91;98389.59;5100825;28;20305;-68
2022/08/30 09:20:27;;;;;;;5.80;5.20;;;;;;;26.06;56.56;98386.91;5098650;28;20275;-68
2022/08/30 09:22:53;;;;;;;5.43;4.93;;;;;;;26.12;57.42;98380.69;5099048;28;20226;-68
2022/08/30 09:25:23;;;;;;;5.63;5.00;;;;;;;26.20;57.41;98380.53;5100669;28;20246;-68
2022/08/30 09:27:52;;;;;;;4.70;4.30;;;;;;;26.26;57.65;98377.03;5103085;28;20310;-68
2022/08/30 09:30:21;;;;;;;5.87;4.50;;;;;;;26.29;57.90;98379.34;5101574;28;20231;-68
2022/08/30 09:32:54;;;;;;;8.93;5.50;;;;;;;26.31;56.56;98379.13;5100645;28;20223;-68
2022/08/30 09:35:23;;;;;;;5.73;5.13;;;;;;;26.35;54.88;98372.28;5100626;28;20272;-67
2022/08/30 09:37:55;;;;;;;5.33;4.83;;;;;;;26.36;55.33;98377.53;5096872;28;20331;-68
2022/08/30 09:40:32;;;;;;;5.20;4.70;;;;;;;26.52;57.85;98363.63;5088901;28;20226;-68
2022/08/30 09:43:02;;;;;;;5.60;5.00;;;;;;;26.67;54.91;98366.22;5100472;28;20230;-67
2022/08/30 09:45:33;;;;;;;5.73;4.90;;;;;;;26.77;54.87;98353.97;5102492;28;20245;-66
2022/08/30 09:48:02;;;;;;;5.33;4.50;;;;;;;26.93;54.69;98359.06;5100272;28;20577;-68
2022/08/30 09:50:36;;;;;;;5.60;4.50;;;;;;;27.08;50.17;98352.41;5100229;28;20227;-67
2022/08/30 09:53:11;;;;;;;5.00;4.50;;;;;;;27.20;48.67;98354.59;5100445;28;20257;-67
2022/08/30 09:55:58;;;;;;;5.07;4.57;;;;;;;27.29;49.71;98351.47;5097420;28;20226;-67
2022/08/30 09:58:36;;;;;;;5.78;5.15;;;;;;;27.32;49.78;98347.50;5100371;28;20226;-67
2022/08/30 10:01:10;;;;;;;5.10;4.60;;;;;;;27.27;49.45;98346.25;5101056;28;20601;-67
2022/08/30 10:03:44;;;;;;;5.05;4.25;;;;;;;27.31;50.28;98346.66;5102339;28;20221;-68
2022/08/30 10:06:18;;;;;;;5.00;4.53;;;;;;;27.33;49.22;98343.75;5100215;28;20258;-68
2022/08/30 10:08:56;;;;;;;5.80;4.73;;;;;;;27.34;47.31;98340.84;5100068;28;20246;-68
2022/08/30 10:11:32;;;;;;;6.13;4.80;;;;;;;27.36;49.61;98341.44;5097131;28;20226;-67
2022/08/30 10:14:39;;;;;;;5.28;4.70;;;;;;;27.46;48.71;98336.47;5099945;28;20628;-68
2022/08/30 10:17:13;;;;;;;4.93;4.43;;;;;;;27.57;48.28;98327.72;5001471;28;20288;-67
2022/08/30 10:19:57;;;;;;;4.43;4.03;;;;;;;27.59;48.13;98328.31;5076504;28;20295;-67
2022/08/30 10:22:30;;;;;;;5.07;4.63;;;;;;;27.60;49.59;98322.69;5100076;28;20265;-67
2022/08/30 10:25:04;;;;;;;5.10;4.63;;;;;;;27.75;48.20;98322.50;5104768;28;20221;-67
2022/08/30 10:27:36;;;;;;;5.63;5.07;;;;;;;27.76;47.30;98319.53;5091637;28;20520;-67
2022/08/30 10:30:09;;;;;;;4.97;4.47;;;;;;;27.80;47.54;98320.00;5103642;28;20284;-67
2022/08/30 10:32:41;;;;;;;5.35;4.75;;;;;;;27.77;46.25;98320.44;5104841;28;20666;-67
2022/08/30 10:35:14;;;;;;;4.97;4.57;;;;;;;27.90;47.17;98309.53;5105209;28;20269;-66
2022/08/30 10:37:46;;;;;;;5.13;4.63;;;;;;;27.92;46.83;98307.44;5103482;28;20233;-68
2022/08/30 10:43:08;;;;;;;5.40;4.80;;;;;;;28.08;46.09;98301.56;5101926;28;20241;-66
2022/08/30 10:45:40;;;;;;;5.97;4.30;;;;;;;28.12;44.30;98308.28;5103343;28;20223;-66
2022/08/30 10:48:13;;;;;;;4.60;4.20;;;;;;;28.10;44.37;98307.63;5103237;28;20702;-67
2022/08/30 10:50:48;;;;;;;4.80;4.40;;;;;;;28.13;45.16;98309.94;5100030;28;20230;-66
2022/08/30 10:53:18;;;;;;;4.50;4.10;;;;;;;28.19;45.28;98303.66;5103477;28;20299;-66
2022/08/30 10:55:50;;;;;;;4.88;4.47;;;;;;;28.21;45.52;98307.84;5103195;28;20223;-66
2022/08/30 10:58:18;;;;;;;4.82;4.43;;;;;;;28.30;45.82;98303.81;5104677;28;20291;-67
2022/08/30 11:01:00;;;;;;;4.82;4.43;;;;;;;28.40;46.41;98301.53;5103044;28;20588;-66
2022/08/30 11:04:07;;;;;;;5.13;4.70;;;;;;;28.46;45.92;98288.94;5102314;28;20227;-67
2022/08/30 11:06:42;;;;;;;5.32;4.18;;;;;;;28.55;44.44;98295.84;5086217;28;20508;-67
2022/08/30 11:09:26;;;;;;;5.15;4.70;;;;;;;28.62;44.23;98299.34;5102140;28;20284;-66
2022/08/30 11:12:16;;;;;;;4.82;4.43;;;;;;;28.71;45.56;98292.59;5103314;28;20231;-67
2022/08/30 11:14:45;;;;;;;4.68;4.28;;;;;;;28.85;44.49;98294.25;5090818;28;20291;-66
2022/08/30 11:17:25;;;;;;;5.13;4.65;;;;;;;28.89;42.78;98290.00;5102711;28;20599;-66
2022/08/30 11:19:53;;;;;;;4.70;4.30;;;;;;;28.92;42.76;98290.41;5104547;28;20283;-68
2022/08/30 11:22:26;;;;;;;4.43;4.03;;;;;;;28.88;42.30;98294.63;5104171;28;20257;-67
2022/08/30 11:25:15;;;;;;;4.13;3.83;;;;;;;28.84;42.53;98285.22;5102672;28;20287;-67
2022/08/30 11:27:46;;;;;;;3.72;3.42;;;;;;;28.79;41.91;98284.22;5096767;28;20333;-67
2022/08/30 11:30:51;;;;;;;4.53;4.00;;;;;;;28.73;42.37;98279.66;5103864;28;20356;-67
2022/08/30 11:33:42;;;;;;;4.55;4.15;;;;;;;28.70;43.61;98288.22;5100726;28;20459;-67
2022/08/30 11:36:10;;;;;;;5.13;4.68;;;;;;;28.79;43.35;98284.22;5100888;28;20258;-67
2022/08/30 11:39:03;;;;;;;4.72;4.20;;;;;;;28.86;42.99;98287.75;5102312;28;20580;-67
2022/08/30 11:41:33;;;;;;;4.32;3.95;;;;;;;28.90;42.68;98294.41;5103943;28;20275;-67
2022/08/30 11:44:30;;;;;;;5.00;4.20;;;;;;;28.91;42.23;98290.66;5103464;28;20306;-67
2022/08/30 11:46:58;;;;;;;4.90;4.03;;;;;;;28.96;42.62;98293.56;5102111;28;20266;-67
2022/08/30 11:49:45;;;;;;;4.82;4.43;;;;;;;28.96;42.71;98290.84;5104345;28;20254;-67